KBHM/BHM METAR and TAF weather

Enter ICAO airport designator
Station Type Date Time Source
KBHM METAR 2019/02/23 23:01 UTC NOAA

KBHM 232301Z 24004KT 10SM BKN034 OVC046 21/19 A2990 RMK AO2 LTG DSNT NE RAE2259 P0000 T02110194


Station Type Date Time Source
KBHM Decoded METAR 2019/02/23 23:01 UTC NOAA

BIRMINGHAM INT'L AIRPORT, AL, United States (KBHM) 33-34N 086-45W 197M
Feb 23, 2019 - 06:01 PM EST / 2019.02.23 2301 UTC
Wind: from the WSW (240 degrees) at 5 MPH (4 KT):0
Visibility: 10 mile(s):0
Sky conditions: overcast
Weather: Lightning observed
Precipitation last hour: A trace
Temperature: 70.0 F (21.1 C)
Dew Point: 66.9 F (19.4 C)
Relative Humidity: 90%
Pressure (altimeter): 29.9 in. Hg (1012 hPa)
ob: KBHM 232301Z 24004KT 10SM BKN034 OVC046 21/19 A2990 RMK AO2 LTG DSNT NE RAE2259 P0000 T02110194
cycle: 23

Station Type Date Time Source
KBHM TAF 2019/02/23 22:36 UTC NOAA

TAF
AMD KBHM 232134Z 2322/2418 18012G22KT P6SM -SHRA VCTS SCT025CB OVC050
TEMPO 2322/2323 2SM TSRA BKN020CB
FM240200 20015G25KT 4SM -SHRA VCTS OVC025CB
FM240900 26015KT P6SM BKN050


Example: see airport list